Time;durP1;ratioP1;P1;durP2;ratioP2;P2;SDS_P1;SDS_P2;PMS_P1;PMS_P2;Temp;Humidity;BMP_temperature;BMP_pressure;BME280_temperature;BME280_humidity;BME280_pressure;Samples;Min_cycle;Max_cycle;Signal;HPM_P1;HPM_P2
2022/07/30 00:02:22;;;;;;;0.65;0.65;;;;;;;21.97;46.36;101129.69;5175253;28;20279;-81
2022/07/30 00:04:53;;;;;;;1.13;0.68;;;;;;;21.93;46.43;101131.72;5174144;28;21238;-81
2022/07/30 00:07:27;;;;;;;0.77;0.70;;;;;;;21.89;46.23;101127.53;5186172;28;20040;-81
2022/07/30 00:09:57;;;;;;;0.60;0.60;;;;;;;21.85;46.51;101120.72;5184934;28;20048;-80
2022/07/30 00:12:28;;;;;;;0.30;0.30;;;;;;;21.82;46.64;101121.75;5214976;28;20747;-81
2022/07/30 00:14:58;;;;;;;0.60;0.60;;;;;;;21.80;46.49;101122.84;5165687;28;20056;-81
2022/07/30 00:17:29;;;;;;;0.55;0.55;;;;;;;21.75;46.77;101125.81;5184728;28;20017;-80
2022/07/30 00:19:59;;;;;;;3.53;0.60;;;;;;;21.72;47.09;101120.69;5201290;28;20044;-80
2022/07/30 00:22:30;;;;;;;0.38;0.38;;;;;;;21.68;47.44;101117.38;5201666;28;20036;-80
2022/07/30 00:25:01;;;;;;;1.08;0.63;;;;;;;21.64;46.82;101121.22;5197892;28;20036;-81
2022/07/30 00:27:36;;;;;;;5.22;3.38;;;;;;;21.64;46.54;101123.88;5185270;28;20032;-80
2022/07/30 00:30:10;;;;;;;1.23;1.13;;;;;;;21.59;47.43;101130.47;5168644;28;20052;-80
2022/07/30 00:32:41;;;;;;;16.73;2.53;;;;;;;21.54;47.19;101122.75;5167573;28;20911;-80
2022/07/30 00:35:12;;;;;;;0.60;0.60;;;;;;;21.51;46.85;101123.81;5183835;28;20040;-81
2022/07/30 00:37:45;;;;;;;3.70;2.08;;;;;;;21.48;47.05;101126.72;5201216;28;20040;-80
2022/07/30 00:40:15;;;;;;;0.40;0.40;;;;;;;21.44;47.59;101129.69;5201466;28;20100;-80
2022/07/30 00:42:47;;;;;;;1.15;1.10;;;;;;;21.43;46.70;101125.28;5185727;28;20124;-80
2022/07/30 00:45:17;;;;;;;2.35;0.80;;;;;;;21.37;47.24;101127.41;5167066;28;20673;-81
2022/07/30 00:47:48;;;;;;;6.05;0.77;;;;;;;21.37;47.71;101129.22;5185335;28;20037;-80
2022/07/30 00:50:19;;;;;;;1.27;0.80;;;;;;;21.34;48.18;101129.41;5184203;28;20044;-81
2022/07/30 00:52:50;;;;;;;0.60;0.57;;;;;;;21.32;48.12;101129.53;5202318;28;20029;-81
2022/07/30 00:55:20;;;;;;;0.50;0.50;;;;;;;21.31;47.69;101137.66;5168520;28;20116;-80
2022/07/30 00:57:52;;;;;;;0.70;0.70;;;;;;;21.27;47.82;101134.31;5187078;28;20544;-80
2022/07/30 01:00:23;;;;;;;1.23;1.00;;;;;;;21.23;47.78;101138.13;5178038;28;20132;-81
2022/07/30 01:02:53;;;;;;;0.88;0.82;;;;;;;21.19;47.54;101140.16;5182840;28;20614;-80
2022/07/30 01:05:24;;;;;;;1.10;0.60;;;;;;;21.17;47.55;101136.72;5200926;28;20127;-81
2022/07/30 01:07:55;;;;;;;0.70;0.70;;;;;;;21.11;48.25;101136.28;5221930;28;20029;-82
2022/07/30 01:10:26;;;;;;;0.65;0.65;;;;;;;21.14;48.09;101146.75;5191855;28;20059;-80
2022/07/30 01:12:58;;;;;;;0.65;0.63;;;;;;;21.09;47.83;101139.03;5195424;28;20900;-80
2022/07/30 01:15:28;;;;;;;1.23;0.85;;;;;;;21.07;47.85;101140.97;5201874;28;20048;-80
2022/07/30 01:18:05;;;;;;;3.40;1.23;;;;;;;21.02;48.53;101135.06;5200016;28;20596;-80
2022/07/30 01:20:58;;;;;;;0.70;0.60;;;;;;;21.03;48.04;101134.09;5175356;28;20066;-80
2022/07/30 01:23:46;;;;;;;0.40;0.40;;;;;;;21.00;48.69;101139.63;5177360;28;20080;-80
2022/07/30 01:26:19;;;;;;;0.70;0.70;;;;;;;20.93;48.38;101133.84;5166436;28;20037;-79
2022/07/30 01:28:53;;;;;;;0.50;0.50;;;;;;;20.93;48.20;101128.50;5190451;28;20021;-80
2022/07/30 01:31:25;;;;;;;0.70;0.70;;;;;;;20.88;48.19;101126.13;5187016;28;20464;-80
2022/07/30 01:34:03;;;;;;;0.45;0.45;;;;;;;20.90;48.07;101134.03;5206296;28;20029;-80
2022/07/30 01:36:45;;;;;;;0.93;0.85;;;;;;;20.86;48.75;101130.72;5197482;28;20045;-80
2022/07/30 01:39:18;;;;;;;0.73;0.57;;;;;;;20.86;48.57;101132.53;5207084;28;20682;-80
2022/07/30 01:41:50;;;;;;;0.70;0.70;;;;;;;20.81;48.54;101129.28;5190296;28;20045;-80
2022/07/30 01:44:24;;;;;;;0.73;0.73;;;;;;;20.78;48.53;101130.34;5195489;28;20037;-79
2022/07/30 01:46:55;;;;;;;0.30;0.30;;;;;;;20.74;48.64;101129.69;5216004;28;20106;-81
2022/07/30 01:49:30;;;;;;;0.80;0.70;;;;;;;20.72;48.70;101134.22;5187854;28;20073;-80
2022/07/30 01:52:10;;;;;;;0.88;0.88;;;;;;;20.67;48.41;101133.66;5202952;28;20045;-80
2022/07/30 01:54:44;;;;;;;0.47;0.47;;;;;;;20.69;48.59;101139.75;5170842;28;20037;-80
2022/07/30 01:57:19;;;;;;;0.50;0.50;;;;;;;20.60;49.27;101143.84;5184649;28;20045;-79
2022/07/30 01:59:53;;;;;;;0.73;0.73;;;;;;;20.57;49.20;101151.19;5205269;28;20033;-80
2022/07/30 02:02:24;;;;;;;0.93;0.93;;;;;;;20.57;48.49;101140.53;5205011;28;20103;-80
2022/07/30 02:04:54;;;;;;;1.13;1.08;;;;;;;20.56;48.48;101141.47;5190899;28;20032;-80
2022/07/30 02:07:38;;;;;;;7.47;1.85;;;;;;;20.52;50.26;101147.97;5171399;28;20457;-80
2022/07/30 02:10:27;;;;;;;;;;;;;;;20.51;48.62;101143.59;5191982;28;20125;-81
2022/07/30 02:13:00;;;;;;;1.42;1.15;;;;;;;20.49;48.67;101148.13;5204254;28;19920;-79
2022/07/30 02:15:48;;;;;;;1.00;0.75;;;;;;;20.44;48.60;101143.09;5189198;28;20056;-80
2022/07/30 02:18:31;;;;;;;1.75;0.50;;;;;;;20.42;49.06;101148.53;5206395;28;20179;-79
2022/07/30 02:21:22;;;;;;;8.23;1.98;;;;;;;20.44;48.75;101145.75;5197317;28;20040;-80
2022/07/30 02:23:55;;;;;;;0.43;0.43;;;;;;;20.41;49.06;101146.81;5186840;28;22016;-79
2022/07/30 02:26:28;;;;;;;9.75;1.25;;;;;;;20.40;48.91;101145.09;5174966;28;20055;-80
2022/07/30 02:29:01;;;;;;;0.70;0.60;;;;;;;20.37;49.39;101147.94;5191362;28;20693;-80
2022/07/30 02:31:39;;;;;;;0.65;0.65;;;;;;;20.34;49.42;101148.16;5195147;28;20044;-79
2022/07/30 02:34:12;;;;;;;0.47;0.47;;;;;;;20.34;49.79;101150.81;5201673;28;20048;-79
2022/07/30 02:36:44;;;;;;;0.68;0.68;;;;;;;20.33;49.87;101149.09;5197373;28;20040;-79
2022/07/30 02:39:21;;;;;;;0.30;0.30;;;;;;;20.28;49.98;101154.69;5181754;28;20033;-80
2022/07/30 02:41:55;;;;;;;0.60;0.60;;;;;;;20.27;49.55;101147.66;5183566;28;20031;-79
2022/07/30 02:44:28;;;;;;;1.02;0.95;;;;;;;20.28;49.44;101159.19;5203907;28;20097;-80
2022/07/30 02:47:01;;;;;;;3.08;1.77;;;;;;;20.25;49.58;101154.03;5186982;28;20045;-80
2022/07/30 02:49:44;;;;;;;0.70;0.70;;;;;;;20.22;49.82;101163.09;5199123;28;20079;-79
2022/07/30 02:52:16;;;;;;;0.80;0.80;;;;;;;20.21;49.52;101163.16;5221982;28;20029;-79
2022/07/30 02:54:48;;;;;;;1.70;1.10;;;;;;;20.19;49.20;101157.09;5229062;28;20671;-80
2022/07/30 02:57:22;;;;;;;0.98;0.85;;;;;;;20.17;49.76;101154.50;5190432;28;20132;-80
2022/07/30 02:59:54;;;;;;;0.73;0.73;;;;;;;20.15;50.31;101158.19;5159060;28;20044;-79
2022/07/30 03:07:12;;;;;;;0.77;0.77;;;;;;;20.10;49.84;101159.34;5169918;28;20136;-80
2022/07/30 03:13:19;;;;;;;1.63;1.00;;;;;;;20.06;49.91;101165.81;5127844;28;20043;-79
2022/07/30 03:15:52;;;;;;;0.60;0.60;;;;;;;20.05;51.36;101169.41;5173796;28;20057;-79
2022/07/30 03:18:23;;;;;;;3.38;1.75;;;;;;;20.04;49.81;101165.03;5153046;28;20047;-79
2022/07/30 03:20:58;;;;;;;0.30;0.30;;;;;;;19.99;49.95;101169.78;5187188;28;20644;-79
2022/07/30 03:23:43;;;;;;;0.57;0.45;;;;;;;19.99;49.85;101168.94;5187292;28;20031;-79
2022/07/30 03:26:15;;;;;;;0.75;0.75;;;;;;;19.96;50.83;101175.28;5186165;28;20036;-79
2022/07/30 03:28:46;;;;;;;0.50;0.50;;;;;;;19.93;50.43;101164.84;5168415;28;20040;-80
2022/07/30 03:31:17;;;;;;;3.92;1.30;;;;;;;19.89;53.11;101171.28;5200204;28;20048;-79
2022/07/30 03:33:49;;;;;;;1.27;1.17;;;;;;;19.87;51.89;101165.22;5173730;28;20509;-81
2022/07/30 03:36:19;;;;;;;0.80;0.80;;;;;;;19.94;51.84;101169.22;5187259;28;20059;-79
2022/07/30 03:38:51;;;;;;;0.45;0.45;;;;;;;19.87;51.36;101166.03;5202332;28;20021;-80
2022/07/30 03:41:25;;;;;;;0.82;0.82;;;;;;;19.84;51.50;101165.34;5203360;28;20068;-79
2022/07/30 03:43:57;;;;;;;0.88;0.88;;;;;;;19.84;52.18;101178.66;5204730;28;20024;-79
2022/07/30 03:46:28;;;;;;;0.45;0.45;;;;;;;19.80;51.54;101170.84;5184426;28;20044;-79
2022/07/30 03:48:59;;;;;;;2.10;1.90;;;;;;;19.78;51.71;101175.41;5188960;28;20643;-79
2022/07/30 03:51:31;;;;;;;1.15;1.00;;;;;;;19.74;51.83;101184.50;5173519;28;20041;-80
2022/07/30 03:54:11;;;;;;;0.35;0.35;;;;;;;19.78;52.13;101183.41;5184047;28;20036;-79
2022/07/30 03:56:42;;;;;;;1.45;1.23;;;;;;;19.74;51.31;101181.84;5169056;28;20123;-79
2022/07/30 03:59:13;;;;;;;5.25;1.67;;;;;;;19.64;55.22;101192.19;5204256;28;20028;-78
2022/07/30 04:01:44;;;;;;;1.00;0.90;;;;;;;19.69;52.41;101186.59;5163691;28;20044;-80
2022/07/30 04:04:17;;;;;;;1.23;0.93;;;;;;;19.71;52.22;101192.66;5172204;28;20104;-80
2022/07/30 04:06:48;;;;;;;2.05;1.73;;;;;;;19.66;52.08;101194.75;5184596;28;20044;-80
2022/07/30 04:09:19;;;;;;;1.25;1.17;;;;;;;19.59;52.39;101201.38;5190368;28;20025;-80
2022/07/30 04:11:50;;;;;;;0.60;0.60;;;;;;;19.60;52.84;101206.59;5184813;28;20033;-80
2022/07/30 04:14:20;;;;;;;0.65;0.65;;;;;;;19.57;52.29;101200.59;5201136;28;20131;-81
2022/07/30 04:17:28;;;;;;;2.97;0.68;;;;;;;19.56;52.61;101213.06;5183500;28;20369;-81
2022/07/30 04:20:11;;;;;;;0.57;0.57;;;;;;;19.53;52.04;101221.22;5190260;28;20603;-81
2022/07/30 04:22:43;;;;;;;0.43;0.43;;;;;;;19.54;52.62;101214.09;5212378;28;20083;-80
2022/07/30 04:25:15;;;;;;;0.82;0.82;;;;;;;19.51;52.83;101212.44;5168866;28;20037;-80
2022/07/30 04:27:47;;;;;;;0.85;0.85;;;;;;;19.50;52.37;101216.09;5185593;28;20032;-81
2022/07/30 04:30:17;;;;;;;0.90;0.80;;;;;;;19.49;52.64;101220.53;5183740;28;20032;-81
2022/07/30 04:32:48;;;;;;;0.82;0.80;;;;;;;19.55;52.70;101215.78;5204819;28;20043;-80
2022/07/30 04:35:33;;;;;;;1.02;0.93;;;;;;;19.50;54.48;101227.56;5225902;28;20041;-80
2022/07/30 04:38:09;;;;;;;1.15;1.08;;;;;;;19.35;55.17;101231.09;5194318;28;20037;-80
2022/07/30 04:40:40;;;;;;;1.52;1.08;;;;;;;19.42;54.51;101228.97;5130457;28;20613;-81
2022/07/30 04:43:14;;;;;;;3.28;1.83;;;;;;;19.37;55.16;101234.53;5183936;28;20086;-80
2022/07/30 04:45:44;;;;;;;0.77;0.77;;;;;;;19.41;54.94;101233.41;5188085;28;20037;-81
2022/07/30 04:48:17;;;;;;;0.93;0.93;;;;;;;19.40;59.66;101236.16;5184476;28;20025;-81
2022/07/30 04:50:53;;;;;;;1.45;1.35;;;;;;;19.38;57.16;101238.91;5186996;28;20120;-81
2022/07/30 04:53:27;;;;;;;1.90;1.55;;;;;;;19.43;55.66;101235.97;5167465;28;20701;-80
2022/07/30 04:55:58;;;;;;;0.82;0.82;;;;;;;19.41;55.82;101244.06;5183554;28;20707;-81
2022/07/30 04:58:30;;;;;;;0.60;0.60;;;;;;;19.37;57.55;101247.84;5189079;28;20036;-81
2022/07/30 05:01:10;;;;;;;1.47;1.37;;;;;;;19.45;56.56;101250.94;5185956;28;20059;-81
2022/07/30 05:03:59;;;;;;;0.63;0.63;;;;;;;19.42;56.79;101251.09;5186911;28;20632;-81
2022/07/30 05:06:35;;;;;;;2.63;1.95;;;;;;;19.44;56.26;101249.22;5190383;28;20424;-81
2022/07/30 05:09:10;;;;;;;0.82;0.82;;;;;;;19.48;56.05;101257.88;5207197;28;20025;-81
2022/07/30 05:11:52;;;;;;;1.55;1.40;;;;;;;19.49;56.53;101262.28;5191250;28;20090;-80
2022/07/30 05:14:23;;;;;;;3.38;2.03;;;;;;;19.48;55.59;101258.72;5192426;28;20044;-80
2022/07/30 05:16:54;;;;;;;3.58;1.95;;;;;;;19.41;57.55;101268.00;5210109;28;20426;-80
2022/07/30 05:19:25;;;;;;;1.30;1.20;;;;;;;19.46;59.22;101263.28;5180639;28;20040;-80
2022/07/30 05:21:55;;;;;;;1.77;1.67;;;;;;;19.40;59.34;101268.09;5190376;28;20835;-81
2022/07/30 05:24:26;;;;;;;0.75;0.60;;;;;;;19.46;57.74;101270.41;5236193;28;20092;-81
2022/07/30 05:26:56;;;;;;;1.45;1.35;;;;;;;19.48;57.64;101271.19;5193044;28;20059;-79
2022/07/30 05:29:27;;;;;;;0.95;0.90;;;;;;;19.46;57.68;101273.91;5221567;28;20098;-79
2022/07/30 05:31:57;;;;;;;1.65;1.55;;;;;;;19.43;58.64;101276.78;5192076;28;20043;-79
2022/07/30 05:34:28;;;;;;;2.22;1.98;;;;;;;19.47;57.49;101272.13;5200245;28;20075;-80
2022/07/30 05:37:11;;;;;;;1.90;1.80;;;;;;;19.43;60.78;101274.09;5162171;28;20200;-79
2022/07/30 05:39:44;;;;;;;1.50;1.40;;;;;;;19.48;58.13;101281.84;5166847;28;20038;-79
2022/07/30 05:42:17;;;;;;;7.00;2.00;;;;;;;19.49;57.84;101279.06;5188445;28;20047;-79
2022/07/30 05:44:47;;;;;;;1.27;1.17;;;;;;;19.50;57.58;101279.94;5189246;28;20017;-79
2022/07/30 05:47:20;;;;;;;5.32;2.50;;;;;;;19.50;61.65;101280.81;5193295;28;20488;-80
2022/07/30 05:49:52;;;;;;;1.17;1.17;;;;;;;19.52;58.15;101286.03;5172523;28;20558;-79
2022/07/30 05:52:22;;;;;;;1.17;1.15;;;;;;;19.50;58.39;101288.78;5197244;28;20028;-79
2022/07/30 05:54:53;;;;;;;2.33;1.40;;;;;;;19.54;58.46;101280.63;5192066;28;20474;-79
2022/07/30 05:57:24;;;;;;;2.05;1.90;;;;;;;19.54;57.41;101288.63;5196051;28;20040;-79
2022/07/30 05:59:54;;;;;;;1.33;1.23;;;;;;;19.57;61.07;101291.09;5193524;28;20524;-80
2022/07/30 06:02:25;;;;;;;0.95;0.93;;;;;;;19.57;57.87;101291.97;5223302;28;20499;-79
2022/07/30 06:04:55;;;;;;;2.13;1.52;;;;;;;19.56;58.70;101290.25;5174310;28;20070;-80
2022/07/30 06:07:35;;;;;;;1.63;1.50;;;;;;;19.63;57.82;101293.41;5195410;28;20075;-79
2022/07/30 06:10:15;;;;;;;2.35;2.00;;;;;;;19.61;58.98;101292.66;5186042;28;20139;-79
2022/07/30 06:12:45;;;;;;;0.80;0.80;;;;;;;19.54;61.08;101291.28;5191760;28;20037;-80
2022/07/30 06:15:16;;;;;;;0.93;0.88;;;;;;;19.64;58.46;101300.44;5186279;28;20044;-79
2022/07/30 06:17:50;;;;;;;0.95;0.95;;;;;;;19.66;58.98;101294.13;5185273;28;20017;-79
2022/07/30 06:20:20;;;;;;;2.30;2.10;;;;;;;19.71;59.27;101298.31;5219742;28;20044;-79
2022/07/30 06:22:51;;;;;;;0.70;0.70;;;;;;;19.62;61.06;101299.69;5211115;28;20025;-81
2022/07/30 06:25:21;;;;;;;2.08;1.90;;;;;;;19.57;61.41;101301.75;5173836;28;20032;-81
2022/07/30 06:27:52;;;;;;;4.28;1.25;;;;;;;19.61;60.55;101313.94;5186388;28;20037;-81
2022/07/30 06:30:27;;;;;;;;;;;;;;;19.62;60.11;101305.03;5169286;28;20045;-81
2022/07/30 06:33:01;;;;;;;0.82;0.80;;;;;;;19.66;59.42;101306.56;5188339;28;20158;-81
2022/07/30 06:35:37;;;;;;;1.60;1.45;;;;;;;19.61;61.76;101303.31;5185597;28;20132;-80
2022/07/30 06:38:08;;;;;;;0.40;0.40;;;;;;;19.68;60.02;101304.66;5186836;28;20033;-79
2022/07/30 06:40:39;;;;;;;1.70;1.30;;;;;;;19.70;61.03;101302.78;5189670;28;20044;-79
2022/07/30 06:43:12;;;;;;;2.67;1.00;;;;;;;19.65;60.99;101313.69;5184806;28;20405;-78
2022/07/30 06:45:43;;;;;;;1.20;1.10;;;;;;;19.78;59.68;101313.88;5177734;28;20489;-78
2022/07/30 06:48:13;;;;;;;1.48;1.38;;;;;;;19.74;59.81;101311.47;5174557;28;20029;-78
2022/07/30 06:50:44;;;;;;;1.08;0.63;;;;;;;19.75;60.74;101307.84;5145161;28;20101;-79
2022/07/30 06:53:14;;;;;;;0.70;0.70;;;;;;;19.79;60.17;101317.38;5201381;28;20133;-78
2022/07/30 06:55:45;;;;;;;0.85;0.85;;;;;;;19.88;61.23;101310.69;5184158;28;20052;-79
2022/07/30 06:58:16;;;;;;;0.65;0.57;;;;;;;19.72;62.42;101319.50;5174277;28;20036;-80
2022/07/30 07:00:48;;;;;;;1.65;1.45;;;;;;;19.87;60.35;101320.50;5169528;28;20586;-79
2022/07/30 07:03:21;;;;;;;;;;;;;;;19.72;62.94;101321.31;5153220;28;20045;-79
2022/07/30 07:05:53;;;;;;;1.55;1.27;;;;;;;19.86;60.85;101320.59;5166686;28;19970;-80
2022/07/30 07:08:27;;;;;;;1.27;1.08;;;;;;;19.88;60.70;101318.66;5185252;28;20603;-79
2022/07/30 07:11:12;;;;;;;0.93;0.93;;;;;;;19.90;59.89;101324.78;5182915;28;20048;-80
2022/07/30 07:13:48;;;;;;;1.40;1.30;;;;;;;19.91;60.06;101327.38;5203146;28;20036;-80
2022/07/30 07:16:21;;;;;;;1.00;0.75;;;;;;;19.90;59.99;101327.44;5184984;28;20059;-80
2022/07/30 07:18:52;;;;;;;;;;;;;;;19.75;62.82;101319.34;5201796;28;20033;-80
2022/07/30 07:21:22;;;;;;;1.30;1.25;;;;;;;19.81;60.85;101326.97;5208770;28;19928;-80
2022/07/30 07:23:53;;;;;;;1.45;1.35;;;;;;;19.71;62.78;101335.59;5171692;28;20029;-80
2022/07/30 07:26:24;;;;;;;3.30;1.58;;;;;;;19.65;62.57;101331.44;5157553;28;20655;-80
2022/07/30 07:28:57;;;;;;;;;;;;;;;19.46;65.04;101327.13;5203716;28;20021;-80
2022/07/30 07:31:27;;;;;;;1.60;0.98;;;;;;;19.46;63.29;101343.09;5206608;28;19939;-80
2022/07/30 07:34:21;;;;;;;1.27;0.80;;;;;;;19.64;62.22;101333.25;5172412;28;20023;-81
2022/07/30 07:36:57;;;;;;;0.98;0.93;;;;;;;19.69;61.81;101333.00;5191895;28;20056;-79
2022/07/30 07:39:27;;;;;;;6.70;1.15;;;;;;;19.74;60.65;101333.59;5180043;28;20034;-79
2022/07/30 07:41:58;;;;;;;3.90;2.67;;;;;;;19.75;61.56;101335.31;5205342;28;20075;-81
2022/07/30 07:44:29;;;;;;;1.27;0.90;;;;;;;19.80;62.06;101340.38;5204533;28;20077;-81
2022/07/30 07:47:11;;;;;;;4.82;2.40;;;;;;;19.77;62.29;101338.75;5183972;28;20037;-81
2022/07/30 07:49:42;;;;;;;1.25;1.13;;;;;;;19.87;60.35;101335.63;5183882;28;20038;-81
2022/07/30 07:52:13;;;;;;;4.93;1.70;;;;;;;19.88;61.03;101332.88;5186500;28;20654;-80
2022/07/30 07:54:44;;;;;;;3.25;1.63;;;;;;;19.90;60.59;101333.63;5185582;28;20040;-81
2022/07/30 07:57:18;;;;;;;1.17;1.10;;;;;;;19.80;62.86;101335.06;5203505;28;20090;-81
2022/07/30 07:59:53;;;;;;;1.33;1.17;;;;;;;19.87;62.19;101330.28;5221823;28;20040;-81
2022/07/30 08:02:24;;;;;;;4.15;2.38;;;;;;;19.88;62.39;101331.97;5205377;28;20024;-80
2022/07/30 08:04:55;;;;;;;3.55;1.77;;;;;;;19.89;62.19;101331.03;5186586;28;20050;-80
2022/07/30 08:07:25;;;;;;;1.17;1.08;;;;;;;19.90;61.84;101335.44;5192300;28;20481;-81
2022/07/30 08:09:56;;;;;;;1.27;1.17;;;;;;;19.97;61.85;101335.00;5183404;28;20033;-80
2022/07/30 08:12:27;;;;;;;1.27;1.25;;;;;;;20.06;60.74;101324.78;5173210;28;20035;-80
2022/07/30 08:14:57;;;;;;;7.90;2.92;;;;;;;20.04;61.65;101332.81;5156816;28;20124;-79
2022/07/30 08:17:30;;;;;;;0.70;0.70;;;;;;;20.07;61.29;101332.66;5160999;28;20961;-80
2022/07/30 08:20:02;;;;;;;;;;;;;;;20.13;61.87;101334.13;5186411;28;20113;-80
2022/07/30 08:22:32;;;;;;;2.47;2.25;;;;;;;20.06;61.50;101330.94;5187980;28;19913;-79
2022/07/30 08:25:12;;;;;;;1.45;1.33;;;;;;;20.08;61.80;101330.88;5183758;28;20514;-81
2022/07/30 08:27:45;;;;;;;1.88;1.73;;;;;;;19.84;63.75;101325.09;5203549;28;20341;-80
2022/07/30 08:30:19;;;;;;;1.70;1.60;;;;;;;19.89;63.47;101333.72;5167035;28;20194;-80
2022/07/30 08:32:49;;;;;;;1.67;1.38;;;;;;;19.93;62.43;101324.63;5211553;28;20033;-80
2022/07/30 08:35:20;;;;;;;1.42;1.33;;;;;;;20.07;61.69;101338.00;5154508;28;20038;-81
2022/07/30 08:37:51;;;;;;;1.25;1.15;;;;;;;20.10;61.50;101337.81;5217674;28;20433;-80
2022/07/30 08:40:27;;;;;;;2.00;0.73;;;;;;;20.12;61.69;101329.72;5186820;28;20079;-80
2022/07/30 08:42:58;;;;;;;2.88;1.77;;;;;;;20.09;61.55;101338.78;5203103;28;20100;-82
2022/07/30 08:45:30;;;;;;;0.98;0.98;;;;;;;20.17;60.77;101337.47;5180958;28;20042;-81
2022/07/30 08:48:07;;;;;;;0.90;0.90;;;;;;;20.26;60.63;101331.59;5182406;28;20021;-79
2022/07/30 08:50:38;;;;;;;3.05;1.85;;;;;;;20.30;60.77;101333.13;5137203;28;20045;-80
2022/07/30 08:53:09;;;;;;;1.48;1.15;;;;;;;20.26;60.57;101336.94;5164426;28;20025;-79
2022/07/30 08:55:40;;;;;;;1.42;1.33;;;;;;;20.22;61.00;101338.91;5147294;28;20079;-79
2022/07/30 08:58:27;;;;;;;8.75;2.70;;;;;;;20.32;59.98;101341.06;5193063;28;20089;-78
2022/07/30 09:00:58;;;;;;;2.03;1.40;;;;;;;20.45;59.28;101334.03;5179633;28;20047;-78
2022/07/30 09:03:29;;;;;;;1.10;1.02;;;;;;;20.37;59.49;101328.31;5182384;28;20448;-78
2022/07/30 09:06:01;;;;;;;0.40;0.40;;;;;;;20.37;59.48;101331.81;5181474;28;20090;-78
2022/07/30 09:08:32;;;;;;;0.35;0.35;;;;;;;20.42;59.25;101334.22;5217198;28;20737;-79
2022/07/30 09:11:03;;;;;;;1.55;1.08;;;;;;;20.50;58.51;101326.63;5165784;28;20103;-79
2022/07/30 09:13:40;;;;;;;1.65;1.55;;;;;;;20.58;58.50;101334.16;5168853;28;20045;-79
2022/07/30 09:16:23;;;;;;;0.77;0.77;;;;;;;20.63;58.36;101344.56;5164057;28;20068;-80
2022/07/30 09:18:54;;;;;;;1.00;1.00;;;;;;;20.60;58.30;101340.28;5209784;28;20048;-79
2022/07/30 09:21:27;;;;;;;3.05;2.20;;;;;;;20.55;57.90;101337.00;5187573;28;20058;-79
2022/07/30 09:24:08;;;;;;;0.68;0.68;;;;;;;20.63;58.10;101340.06;5183618;28;20124;-79
2022/07/30 09:26:59;;;;;;;1.73;1.63;;;;;;;20.62;57.28;101338.34;5194492;28;20053;-80
2022/07/30 09:29:30;;;;;;;0.73;0.73;;;;;;;20.66;57.08;101331.06;5205558;28;20119;-80
2022/07/30 09:32:04;;;;;;;1.13;0.95;;;;;;;20.69;56.72;101333.53;5196512;28;20238;-80
2022/07/30 09:34:39;;;;;;;1.10;1.02;;;;;;;20.79;56.86;101333.84;5175281;28;20069;-80
2022/07/30 09:37:10;;;;;;;9.45;2.15;;;;;;;20.81;56.70;101332.81;5200800;28;20076;-80
2022/07/30 09:39:41;;;;;;;0.77;0.77;;;;;;;20.84;56.96;101331.78;5168801;28;20080;-82
2022/07/30 09:42:20;;;;;;;1.23;0.95;;;;;;;20.87;56.73;101335.13;5182920;28;20091;-81
2022/07/30 09:45:08;;;;;;;11.68;2.08;;;;;;;20.99;56.61;101340.66;5195894;28;20468;-81
2022/07/30 09:47:44;;;;;;;2.25;1.35;;;;;;;21.15;55.22;101340.56;5206203;28;20053;-79
2022/07/30 09:50:18;;;;;;;0.93;0.93;;;;;;;21.10;55.32;101337.31;5145953;28;20044;-79
2022/07/30 09:52:49;;;;;;;1.27;0.95;;;;;;;20.95;53.99;101334.63;5220890;28;20041;-80
2022/07/30 09:55:33;;;;;;;1.38;0.77;;;;;;;21.13;53.55;101338.00;5189177;28;20109;-80
2022/07/30 09:58:05;;;;;;;3.00;0.82;;;;;;;21.07;53.46;101333.88;5169921;28;20060;-79
2022/07/30 10:00:37;;;;;;;0.70;0.70;;;;;;;21.08;53.67;101334.72;5148315;28;20203;-78
2022/07/30 10:03:21;;;;;;;3.60;1.42;;;;;;;21.14;53.95;101334.38;5204175;28;20123;-79
2022/07/30 10:05:57;;;;;;;0.30;0.30;;;;;;;21.14;53.61;101331.72;5172585;28;20038;-79
2022/07/30 10:08:57;;;;;;;4.47;1.73;;;;;;;21.19;53.28;101331.44;5186997;28;20029;-79
2022/07/30 10:11:29;;;;;;;1.65;1.42;;;;;;;21.13;52.87;101321.97;5167350;28;20516;-79
2022/07/30 10:14:01;;;;;;;0.85;0.85;;;;;;;21.15;53.32;101330.75;5176027;28;20485;-78
2022/07/30 10:16:32;;;;;;;0.70;0.70;;;;;;;21.18;53.13;101319.88;5185272;28;20060;-78
2022/07/30 10:19:03;;;;;;;1.15;0.63;;;;;;;21.20;52.49;101325.09;5186550;28;20155;-78
2022/07/30 10:21:34;;;;;;;1.02;0.98;;;;;;;21.22;52.81;101317.88;5185111;28;20044;-80
2022/07/30 10:24:08;;;;;;;0.65;0.65;;;;;;;21.30;52.29;101325.41;5186506;28;20080;-81
2022/07/30 10:26:39;;;;;;;0.60;0.60;;;;;;;21.31;51.32;101325.31;5162625;28;20079;-82
2022/07/30 10:29:11;;;;;;;0.60;0.60;;;;;;;21.30;49.92;101328.91;5170931;28;20362;-81
2022/07/30 10:31:42;;;;;;;1.00;0.82;;;;;;;21.29;49.89;101329.88;5184871;28;20056;-80
2022/07/30 10:34:15;;;;;;;0.68;0.68;;;;;;;21.48;49.71;101336.72;5171247;28;20028;-79
2022/07/30 10:36:50;;;;;;;3.00;1.58;;;;;;;21.54;48.94;101339.88;5179607;28;20048;-80
2022/07/30 10:39:31;;;;;;;1.73;1.45;;;;;;;21.62;48.73;101339.41;5170519;28;20033;-79
2022/07/30 10:42:43;;;;;;;2.28;1.58;;;;;;;21.49;49.93;101327.75;5201895;28;20056;-80
2022/07/30 10:45:46;;;;;;;0.80;0.80;;;;;;;21.50;49.92;101329.47;5150886;28;20279;-81
2022/07/30 10:48:18;;;;;;;0.63;0.63;;;;;;;21.52;49.51;101327.56;5203533;28;20056;-80
2022/07/30 10:50:51;;;;;;;0.20;0.20;;;;;;;21.66;49.64;101324.91;5183148;28;20037;-82
2022/07/30 10:53:39;;;;;;;0.50;0.50;;;;;;;21.64;48.70;101312.63;5175759;28;20037;-80
2022/07/30 10:56:12;;;;;;;4.50;1.70;;;;;;;21.65;47.99;101307.16;5186020;28;20124;-81
2022/07/30 10:59:01;;;;;;;;;;;;;;;21.67;45.89;101315.94;5189580;28;20036;-81
2022/07/30 11:01:47;;;;;;;0.35;0.35;;;;;;;21.70;46.51;101310.38;5202133;28;19924;-81
2022/07/30 11:04:28;;;;;;;0.63;0.63;;;;;;;21.79;45.83;101313.41;5188620;28;20036;-79
2022/07/30 11:07:23;;;;;;;0.40;0.40;;;;;;;21.88;44.63;101311.97;5167052;28;20087;-79
2022/07/30 11:09:59;;;;;;;0.55;0.55;;;;;;;21.84;43.40;101311.31;5174107;28;20195;-79
2022/07/30 11:12:42;;;;;;;0.82;0.80;;;;;;;21.91;42.44;101309.94;5182463;28;20077;-79
2022/07/30 11:15:15;;;;;;;0.50;0.50;;;;;;;21.86;43.96;101312.06;5183938;28;20486;-80
2022/07/30 11:18:00;;;;;;;1.07;0.77;;;;;;;21.98;42.75;101308.59;5183127;28;20056;-79
2022/07/30 11:20:35;;;;;;;0.30;0.30;;;;;;;22.12;43.37;101310.34;5196435;28;20275;-78
2022/07/30 11:23:20;;;;;;;0.50;0.50;;;;;;;22.14;42.70;101303.09;5206919;28;20493;-80
2022/07/30 11:25:50;;;;;;;1.35;0.90;;;;;;;22.20;42.94;101307.16;5202169;28;20083;-80
2022/07/30 11:28:44;;;;;;;1.48;1.13;;;;;;;22.30;44.01;101308.25;5208251;28;20013;-80
2022/07/30 11:31:36;;;;;;;0.30;0.30;;;;;;;22.37;43.77;101314.03;5199501;28;20044;-80
2022/07/30 11:34:18;;;;;;;0.70;0.70;;;;;;;22.46;43.07;101310.78;5195782;28;20097;-79
2022/07/30 11:37:13;;;;;;;0.35;0.35;;;;;;;22.50;44.09;101311.44;5206032;28;20041;-81
2022/07/30 11:39:53;;;;;;;2.20;0.50;;;;;;;22.64;43.23;101311.31;5146926;28;20044;-80
2022/07/30 11:42:28;;;;;;;0.85;0.85;;;;;;;22.73;43.67;101308.97;5188269;28;20033;-80
2022/07/30 11:45:17;;;;;;;0.75;0.50;;;;;;;22.83;43.76;101302.03;5160453;28;20040;-81
2022/07/30 11:47:50;;;;;;;0.40;0.40;;;;;;;22.98;43.68;101307.25;5173040;28;20032;-79
2022/07/30 11:50:27;;;;;;;0.20;0.20;;;;;;;23.06;43.08;101311.09;5201548;28;20039;-79
2022/07/30 11:53:22;;;;;;;0.30;0.30;;;;;;;23.08;43.50;101302.97;5168427;28;20032;-80
2022/07/30 11:55:56;;;;;;;0.20;0.20;;;;;;;23.21;42.32;101298.47;5199277;28;20127;-81
2022/07/30 11:58:33;;;;;;;0.55;0.55;;;;;;;23.29;43.14;101305.09;5189228;28;20032;-81
2022/07/30 12:01:15;;;;;;;0.73;0.68;;;;;;;23.41;43.15;101293.53;5175683;28;20037;-81
2022/07/30 12:03:46;;;;;;;0.30;0.30;;;;;;;23.40;42.99;101297.16;5204862;28;20035;-80
2022/07/30 12:06:18;;;;;;;0.40;0.40;;;;;;;23.62;42.75;101291.09;5206823;28;20128;-79
2022/07/30 12:08:51;;;;;;;0.50;0.50;;;;;;;23.80;42.37;101286.19;5182166;28;20088;-80
2022/07/30 12:11:22;;;;;;;0.52;0.52;;;;;;;23.89;41.11;101282.84;5167107;28;21012;-82